sensor_id;sensor_type;location;lat;lon;timestamp;P1;durP1;ratioP1;P2;durP2;ratioP2
28459;SDS011;32528;45.712;9.192;2023-11-19T00:00:14;10.52;;;5.30;;
28459;SDS011;32528;45.712;9.192;2023-11-19T00:02:15;17.60;;;5.72;;
28459;SDS011;32528;45.712;9.192;2023-11-19T00:04:16;11.65;;;4.82;;
28459;SDS011;32528;45.712;9.192;2023-11-19T00:06:17;14.73;;;4.57;;
28459;SDS011;32528;45.712;9.192;2023-11-19T00:08:17;7.97;;;4.50;;
28459;SDS011;32528;45.712;9.192;2023-11-19T00:10:19;8.77;;;4.13;;
28459;SDS011;32528;45.712;9.192;2023-11-19T00:12:20;10.30;;;4.20;;
28459;SDS011;32528;45.712;9.192;2023-11-19T00:14:22;13.80;;;5.25;;
28459;SDS011;32528;45.712;9.192;2023-11-19T00:16:24;11.13;;;5.45;;
28459;SDS011;32528;45.712;9.192;2023-11-19T00:18:25;9.43;;;5.15;;
28459;SDS011;32528;45.712;9.192;2023-11-19T00:20:26;15.50;;;6.10;;
28459;SDS011;32528;45.712;9.192;2023-11-19T00:22:27;7.80;;;4.28;;
28459;SDS011;32528;45.712;9.192;2023-11-19T00:24:28;11.02;;;4.50;;
28459;SDS011;32528;45.712;9.192;2023-11-19T00:26:29;8.52;;;4.55;;
28459;SDS011;32528;45.712;9.192;2023-11-19T00:28:34;17.80;;;6.10;;
28459;SDS011;32528;45.712;9.192;2023-11-19T00:30:38;21.67;;;9.98;;
28459;SDS011;32528;45.712;9.192;2023-11-19T00:32:41;23.88;;;11.05;;
28459;SDS011;32528;45.712;9.192;2023-11-19T00:34:45;11.05;;;5.53;;
28459;SDS011;32528;45.712;9.192;2023-11-19T00:36:47;9.25;;;5.15;;
28459;SDS011;32528;45.712;9.192;2023-11-19T00:38:49;10.52;;;4.63;;
28459;SDS011;32528;45.712;9.192;2023-11-19T00:40:50;12.77;;;5.45;;
28459;SDS011;32528;45.712;9.192;2023-11-19T00:42:51;12.18;;;5.70;;
28459;SDS011;32528;45.712;9.192;2023-11-19T00:44:52;16.15;;;6.60;;
28459;SDS011;32528;45.712;9.192;2023-11-19T00:46:52;10.30;;;4.68;;
28459;SDS011;32528;45.712;9.192;2023-11-19T00:48:53;14.00;;;5.20;;
28459;SDS011;32528;45.712;9.192;2023-11-19T00:50:55;12.30;;;5.05;;
28459;SDS011;32528;45.712;9.192;2023-11-19T00:52:55;10.45;;;5.20;;
28459;SDS011;32528;45.712;9.192;2023-11-19T00:54:56;12.45;;;5.30;;
28459;SDS011;32528;45.712;9.192;2023-11-19T00:56:57;9.27;;;5.55;;
28459;SDS011;32528;45.712;9.192;2023-11-19T00:58:57;10.73;;;4.45;;
28459;SDS011;32528;45.712;9.192;2023-11-19T01:01:00;8.13;;;4.70;;
28459;SDS011;32528;45.712;9.192;2023-11-19T01:03:00;8.60;;;4.47;;
28459;SDS011;32528;45.712;9.192;2023-11-19T01:05:01;16.42;;;6.95;;
28459;SDS011;32528;45.712;9.192;2023-11-19T01:07:02;10.48;;;4.53;;
28459;SDS011;32528;45.712;9.192;2023-11-19T01:09:04;10.32;;;4.80;;
28459;SDS011;32528;45.712;9.192;2023-11-19T01:11:05;11.57;;;5.43;;
28459;SDS011;32528;45.712;9.192;2023-11-19T01:13:06;12.00;;;5.18;;
28459;SDS011;32528;45.712;9.192;2023-11-19T01:15:07;10.57;;;4.88;;
28459;SDS011;32528;45.712;9.192;2023-11-19T01:17:08;10.40;;;4.88;;
28459;SDS011;32528;45.712;9.192;2023-11-19T01:19:09;14.32;;;5.50;;
28459;SDS011;32528;45.712;9.192;2023-11-19T01:21:11;10.48;;;5.47;;
28459;SDS011;32528;45.712;9.192;2023-11-19T01:23:12;9.02;;;4.25;;
28459;SDS011;32528;45.712;9.192;2023-11-19T01:25:13;12.93;;;4.75;;
28459;SDS011;32528;45.712;9.192;2023-11-19T01:27:32;9.45;;;4.93;;
28459;SDS011;32528;45.712;9.192;2023-11-19T01:29:36;9.75;;;4.43;;
28459;SDS011;32528;45.712;9.192;2023-11-19T01:31:38;10.57;;;5.13;;
28459;SDS011;32528;45.712;9.192;2023-11-19T01:33:39;10.13;;;4.88;;
28459;SDS011;32528;45.712;9.192;2023-11-19T01:35:41;10.13;;;5.05;;
28459;SDS011;32528;45.712;9.192;2023-11-19T01:37:42;9.25;;;4.63;;
28459;SDS011;32528;45.712;9.192;2023-11-19T01:39:45;8.50;;;4.03;;
28459;SDS011;32528;45.712;9.192;2023-11-19T01:41:46;8.75;;;4.60;;
28459;SDS011;32528;45.712;9.192;2023-11-19T01:43:47;8.95;;;4.25;;
28459;SDS011;32528;45.712;9.192;2023-11-19T01:45:48;7.82;;;4.05;;
28459;SDS011;32528;45.712;9.192;2023-11-19T01:47:50;10.30;;;5.03;;
28459;SDS011;32528;45.712;9.192;2023-11-19T01:49:51;19.15;;;8.18;;
28459;SDS011;32528;45.712;9.192;2023-11-19T01:51:52;17.85;;;5.72;;
28459;SDS011;32528;45.712;9.192;2023-11-19T01:53:53;7.65;;;3.90;;
28459;SDS011;32528;45.712;9.192;2023-11-19T01:55:55;8.63;;;4.22;;
28459;SDS011;32528;45.712;9.192;2023-11-19T01:57:59;8.85;;;4.57;;
28459;SDS011;32528;45.712;9.192;2023-11-19T02:00:01;7.68;;;3.58;;
28459;SDS011;32528;45.712;9.192;2023-11-19T02:02:13;13.30;;;4.05;;
28459;SDS011;32528;45.712;9.192;2023-11-19T02:04:14;8.00;;;3.65;;
28459;SDS011;32528;45.712;9.192;2023-11-19T02:06:15;8.20;;;4.18;;
28459;SDS011;32528;45.712;9.192;2023-11-19T02:08:17;9.63;;;4.13;;
28459;SDS011;32528;45.712;9.192;2023-11-19T02:10:18;10.73;;;4.32;;
28459;SDS011;32528;45.712;9.192;2023-11-19T02:12:19;13.07;;;3.75;;
28459;SDS011;32528;45.712;9.192;2023-11-19T02:14:22;9.10;;;4.47;;
28459;SDS011;32528;45.712;9.192;2023-11-19T02:16:26;8.15;;;4.63;;
28459;SDS011;32528;45.712;9.192;2023-11-19T02:18:28;10.52;;;4.22;;
28459;SDS011;32528;45.712;9.192;2023-11-19T02:20:29;10.52;;;4.53;;
28459;SDS011;32528;45.712;9.192;2023-11-19T02:22:30;11.57;;;5.68;;
28459;SDS011;32528;45.712;9.192;2023-11-19T02:24:30;6.75;;;3.83;;
28459;SDS011;32528;45.712;9.192;2023-11-19T02:28:59;11.65;;;4.25;;
28459;SDS011;32528;45.712;9.192;2023-11-19T02:31:00;7.75;;;4.05;;
28459;SDS011;32528;45.712;9.192;2023-11-19T02:33:00;9.18;;;3.97;;
28459;SDS011;32528;45.712;9.192;2023-11-19T02:35:05;8.15;;;3.95;;
28459;SDS011;32528;45.712;9.192;2023-11-19T02:37:08;8.65;;;4.22;;
28459;SDS011;32528;45.712;9.192;2023-11-19T02:39:10;11.27;;;3.97;;
28459;SDS011;32528;45.712;9.192;2023-11-19T02:41:12;7.30;;;3.95;;
28459;SDS011;32528;45.712;9.192;2023-11-19T02:43:14;8.43;;;4.25;;
28459;SDS011;32528;45.712;9.192;2023-11-19T02:45:15;9.63;;;5.13;;
28459;SDS011;32528;45.712;9.192;2023-11-19T02:47:16;10.30;;;4.53;;
28459;SDS011;32528;45.712;9.192;2023-11-19T02:49:17;7.20;;;4.00;;
28459;SDS011;32528;45.712;9.192;2023-11-19T02:51:17;6.25;;;3.72;;
28459;SDS011;32528;45.712;9.192;2023-11-19T02:53:18;7.25;;;3.90;;
28459;SDS011;32528;45.712;9.192;2023-11-19T02:55:22;8.23;;;3.72;;
28459;SDS011;32528;45.712;9.192;2023-11-19T02:57:24;16.92;;;4.63;;
28459;SDS011;32528;45.712;9.192;2023-11-19T02:59:25;7.13;;;3.97;;
28459;SDS011;32528;45.712;9.192;2023-11-19T03:01:39;6.22;;;3.50;;
28459;SDS011;32528;45.712;9.192;2023-11-19T03:03:43;14.88;;;5.68;;
28459;SDS011;32528;45.712;9.192;2023-11-19T03:05:49;20.42;;;7.40;;
28459;SDS011;32528;45.712;9.192;2023-11-19T03:07:50;15.82;;;6.35;;
28459;SDS011;32528;45.712;9.192;2023-11-19T03:09:50;9.55;;;4.38;;
28459;SDS011;32528;45.712;9.192;2023-11-19T03:11:51;12.65;;;5.40;;
28459;SDS011;32528;45.712;9.192;2023-11-19T03:13:52;15.80;;;6.03;;
28459;SDS011;32528;45.712;9.192;2023-11-19T03:15:53;15.43;;;5.75;;
28459;SDS011;32528;45.712;9.192;2023-11-19T03:17:56;14.77;;;4.50;;
28459;SDS011;32528;45.712;9.192;2023-11-19T03:19:57;8.13;;;3.45;;
28459;SDS011;32528;45.712;9.192;2023-11-19T03:21:58;16.77;;;5.18;;
28459;SDS011;32528;45.712;9.192;2023-11-19T03:23:59;10.65;;;5.28;;
28459;SDS011;32528;45.712;9.192;2023-11-19T03:26:00;14.43;;;5.78;;
28459;SDS011;32528;45.712;9.192;2023-11-19T03:28:04;11.85;;;4.68;;
28459;SDS011;32528;45.712;9.192;2023-11-19T03:30:10;10.38;;;4.13;;
28459;SDS011;32528;45.712;9.192;2023-11-19T03:32:11;11.15;;;4.60;;
28459;SDS011;32528;45.712;9.192;2023-11-19T03:34:12;9.48;;;4.65;;
28459;SDS011;32528;45.712;9.192;2023-11-19T03:36:13;7.93;;;4.10;;
28459;SDS011;32528;45.712;9.192;2023-11-19T03:38:14;7.95;;;3.83;;
28459;SDS011;32528;45.712;9.192;2023-11-19T03:40:14;11.80;;;5.10;;
28459;SDS011;32528;45.712;9.192;2023-11-19T03:42:15;13.63;;;6.22;;
28459;SDS011;32528;45.712;9.192;2023-11-19T03:44:16;11.13;;;5.82;;
28459;SDS011;32528;45.712;9.192;2023-11-19T03:48:18;9.68;;;5.10;;
28459;SDS011;32528;45.712;9.192;2023-11-19T03:50:19;8.82;;;3.40;;
28459;SDS011;32528;45.712;9.192;2023-11-19T03:52:22;7.70;;;3.40;;
28459;SDS011;32528;45.712;9.192;2023-11-19T03:54:23;8.88;;;3.83;;
28459;SDS011;32528;45.712;9.192;2023-11-19T03:56:24;6.80;;;3.22;;
28459;SDS011;32528;45.712;9.192;2023-11-19T03:58:25;7.45;;;3.67;;
28459;SDS011;32528;45.712;9.192;2023-11-19T04:00:25;11.10;;;3.83;;
28459;SDS011;32528;45.712;9.192;2023-11-19T04:02:27;9.95;;;4.38;;
28459;SDS011;32528;45.712;9.192;2023-11-19T04:04:28;9.43;;;4.55;;
28459;SDS011;32528;45.712;9.192;2023-11-19T04:06:32;8.98;;;4.00;;
28459;SDS011;32528;45.712;9.192;2023-11-19T04:08:33;4.88;;;2.78;;
28459;SDS011;32528;45.712;9.192;2023-11-19T04:10:33;7.15;;;3.63;;
28459;SDS011;32528;45.712;9.192;2023-11-19T04:12:34;10.55;;;3.40;;
28459;SDS011;32528;45.712;9.192;2023-11-19T04:14:36;10.13;;;3.65;;
28459;SDS011;32528;45.712;9.192;2023-11-19T04:16:36;4.95;;;2.85;;
28459;SDS011;32528;45.712;9.192;2023-11-19T04:18:37;11.50;;;4.65;;
28459;SDS011;32528;45.712;9.192;2023-11-19T04:20:38;7.95;;;3.42;;
28459;SDS011;32528;45.712;9.192;2023-11-19T04:22:39;11.25;;;3.83;;
28459;SDS011;32528;45.712;9.192;2023-11-19T04:24:40;7.75;;;3.83;;
28459;SDS011;32528;45.712;9.192;2023-11-19T04:26:43;7.57;;;3.35;;
28459;SDS011;32528;45.712;9.192;2023-11-19T04:28:45;6.40;;;3.20;;
28459;SDS011;32528;45.712;9.192;2023-11-19T04:30:45;12.25;;;4.15;;
28459;SDS011;32528;45.712;9.192;2023-11-19T04:32:46;6.72;;;3.30;;
28459;SDS011;32528;45.712;9.192;2023-11-19T04:34:50;6.63;;;3.03;;
28459;SDS011;32528;45.712;9.192;2023-11-19T04:36:51;6.95;;;3.95;;
28459;SDS011;32528;45.712;9.192;2023-11-19T04:38:52;6.40;;;3.20;;
28459;SDS011;32528;45.712;9.192;2023-11-19T04:40:52;7.22;;;2.65;;
28459;SDS011;32528;45.712;9.192;2023-11-19T04:42:53;8.88;;;3.70;;
28459;SDS011;32528;45.712;9.192;2023-11-19T04:44:54;12.45;;;3.90;;
28459;SDS011;32528;45.712;9.192;2023-11-19T04:46:54;7.75;;;3.72;;
28459;SDS011;32528;45.712;9.192;2023-11-19T04:48:55;7.03;;;3.55;;
28459;SDS011;32528;45.712;9.192;2023-11-19T04:50:56;6.75;;;3.30;;
28459;SDS011;32528;45.712;9.192;2023-11-19T04:52:56;6.82;;;3.70;;
28459;SDS011;32528;45.712;9.192;2023-11-19T04:54:57;6.65;;;2.83;;
28459;SDS011;32528;45.712;9.192;2023-11-19T04:56:58;8.98;;;3.47;;
28459;SDS011;32528;45.712;9.192;2023-11-19T04:58:59;8.02;;;2.97;;
28459;SDS011;32528;45.712;9.192;2023-11-19T05:00:59;6.47;;;3.08;;
28459;SDS011;32528;45.712;9.192;2023-11-19T05:03:00;5.65;;;3.38;;
28459;SDS011;32528;45.712;9.192;2023-11-19T05:05:01;7.70;;;3.53;;
28459;SDS011;32528;45.712;9.192;2023-11-19T05:07:04;6.47;;;3.80;;
28459;SDS011;32528;45.712;9.192;2023-11-19T05:09:04;4.88;;;2.97;;
28459;SDS011;32528;45.712;9.192;2023-11-19T05:11:07;6.85;;;3.55;;
28459;SDS011;32528;45.712;9.192;2023-11-19T05:13:12;9.30;;;3.50;;
28459;SDS011;32528;45.712;9.192;2023-11-19T05:15:12;7.78;;;3.47;;
28459;SDS011;32528;45.712;9.192;2023-11-19T05:17:14;5.90;;;3.35;;
28459;SDS011;32528;45.712;9.192;2023-11-19T05:19:15;8.93;;;2.78;;
28459;SDS011;32528;45.712;9.192;2023-11-19T05:21:16;5.40;;;2.75;;
28459;SDS011;32528;45.712;9.192;2023-11-19T05:23:17;6.45;;;3.38;;
28459;SDS011;32528;45.712;9.192;2023-11-19T05:25:18;6.72;;;3.38;;
28459;SDS011;32528;45.712;9.192;2023-11-19T05:27:20;5.90;;;2.70;;
28459;SDS011;32528;45.712;9.192;2023-11-19T05:29:21;7.05;;;3.63;;
28459;SDS011;32528;45.712;9.192;2023-11-19T05:31:21;9.35;;;3.22;;
28459;SDS011;32528;45.712;9.192;2023-11-19T05:33:22;10.00;;;3.05;;
28459;SDS011;32528;45.712;9.192;2023-11-19T05:35:23;6.10;;;2.58;;
28459;SDS011;32528;45.712;9.192;2023-11-19T05:37:23;10.52;;;2.53;;
28459;SDS011;32528;45.712;9.192;2023-11-19T05:39:25;7.53;;;2.67;;
28459;SDS011;32528;45.712;9.192;2023-11-19T05:41:25;6.10;;;3.00;;
28459;SDS011;32528;45.712;9.192;2023-11-19T05:43:26;4.53;;;2.38;;
28459;SDS011;32528;45.712;9.192;2023-11-19T05:45:27;6.43;;;3.13;;
28459;SDS011;32528;45.712;9.192;2023-11-19T05:47:28;6.38;;;3.13;;
28459;SDS011;32528;45.712;9.192;2023-11-19T05:49:28;5.60;;;2.42;;
28459;SDS011;32528;45.712;9.192;2023-11-19T05:51:29;6.15;;;3.30;;
28459;SDS011;32528;45.712;9.192;2023-11-19T05:53:30;11.45;;;3.13;;
28459;SDS011;32528;45.712;9.192;2023-11-19T05:55:33;5.68;;;2.65;;
28459;SDS011;32528;45.712;9.192;2023-11-19T05:57:35;5.95;;;3.03;;
28459;SDS011;32528;45.712;9.192;2023-11-19T05:59:39;6.28;;;3.20;;
28459;SDS011;32528;45.712;9.192;2023-11-19T06:01:40;5.22;;;2.58;;
28459;SDS011;32528;45.712;9.192;2023-11-19T06:03:41;4.88;;;2.47;;
28459;SDS011;32528;45.712;9.192;2023-11-19T06:05:47;4.78;;;2.45;;
28459;SDS011;32528;45.712;9.192;2023-11-19T06:07:48;8.95;;;3.58;;
28459;SDS011;32528;45.712;9.192;2023-11-19T06:09:49;6.05;;;2.53;;
28459;SDS011;32528;45.712;9.192;2023-11-19T06:11:50;10.65;;;3.40;;
28459;SDS011;32528;45.712;9.192;2023-11-19T06:13:52;6.15;;;2.78;;
28459;SDS011;32528;45.712;9.192;2023-11-19T06:15:53;5.63;;;3.15;;
28459;SDS011;32528;45.712;9.192;2023-11-19T06:17:54;5.63;;;3.30;;
28459;SDS011;32528;45.712;9.192;2023-11-19T06:19:55;9.85;;;2.95;;
28459;SDS011;32528;45.712;9.192;2023-11-19T06:21:55;6.90;;;3.08;;
28459;SDS011;32528;45.712;9.192;2023-11-19T06:23:56;5.13;;;2.67;;
28459;SDS011;32528;45.712;9.192;2023-11-19T06:25:58;5.38;;;2.95;;
28459;SDS011;32528;45.712;9.192;2023-11-19T06:27:59;7.47;;;3.05;;
28459;SDS011;32528;45.712;9.192;2023-11-19T06:30:00;7.22;;;3.20;;
28459;SDS011;32528;45.712;9.192;2023-11-19T06:32:01;7.95;;;3.80;;
28459;SDS011;32528;45.712;9.192;2023-11-19T06:34:02;5.93;;;3.00;;
28459;SDS011;32528;45.712;9.192;2023-11-19T06:36:03;5.32;;;2.58;;
28459;SDS011;32528;45.712;9.192;2023-11-19T06:38:04;7.57;;;2.90;;
28459;SDS011;32528;45.712;9.192;2023-11-19T06:40:05;6.78;;;3.08;;
28459;SDS011;32528;45.712;9.192;2023-11-19T06:42:06;5.25;;;3.03;;
28459;SDS011;32528;45.712;9.192;2023-11-19T06:44:07;4.90;;;2.88;;
28459;SDS011;32528;45.712;9.192;2023-11-19T06:46:14;8.13;;;3.20;;
28459;SDS011;32528;45.712;9.192;2023-11-19T06:48:18;6.35;;;3.25;;
28459;SDS011;32528;45.712;9.192;2023-11-19T06:50:19;5.20;;;3.22;;
28459;SDS011;32528;45.712;9.192;2023-11-19T06:52:19;6.75;;;2.83;;
28459;SDS011;32528;45.712;9.192;2023-11-19T06:54:20;6.50;;;3.53;;
28459;SDS011;32528;45.712;9.192;2023-11-19T06:56:21;7.07;;;3.05;;
28459;SDS011;32528;45.712;9.192;2023-11-19T06:58:23;5.80;;;3.20;;
28459;SDS011;32528;45.712;9.192;2023-11-19T07:00:24;5.57;;;3.35;;
28459;SDS011;32528;45.712;9.192;2023-11-19T07:02:24;5.22;;;2.88;;
28459;SDS011;32528;45.712;9.192;2023-11-19T07:04:25;8.90;;;4.03;;
28459;SDS011;32528;45.712;9.192;2023-11-19T07:06:26;10.95;;;4.28;;
28459;SDS011;32528;45.712;9.192;2023-11-19T07:08:27;5.85;;;2.85;;
28459;SDS011;32528;45.712;9.192;2023-11-19T07:10:27;7.28;;;3.47;;
28459;SDS011;32528;45.712;9.192;2023-11-19T07:12:29;5.85;;;3.00;;
28459;SDS011;32528;45.712;9.192;2023-11-19T07:14:30;11.65;;;4.68;;
28459;SDS011;32528;45.712;9.192;2023-11-19T07:16:31;16.48;;;4.05;;
28459;SDS011;32528;45.712;9.192;2023-11-19T07:18:32;21.35;;;9.85;;
28459;SDS011;32528;45.712;9.192;2023-11-19T07:20:35;17.95;;;7.40;;
28459;SDS011;32528;45.712;9.192;2023-11-19T07:22:37;20.52;;;9.77;;
28459;SDS011;32528;45.712;9.192;2023-11-19T07:24:39;16.42;;;9.63;;
28459;SDS011;32528;45.712;9.192;2023-11-19T07:28:43;11.88;;;5.90;;
28459;SDS011;32528;45.712;9.192;2023-11-19T07:30:45;12.75;;;6.10;;
28459;SDS011;32528;45.712;9.192;2023-11-19T07:32:46;15.77;;;6.43;;
28459;SDS011;32528;45.712;9.192;2023-11-19T07:34:46;17.17;;;7.05;;
28459;SDS011;32528;45.712;9.192;2023-11-19T07:36:47;14.70;;;8.02;;
28459;SDS011;32528;45.712;9.192;2023-11-19T07:38:48;29.05;;;12.20;;
28459;SDS011;32528;45.712;9.192;2023-11-19T07:40:48;28.55;;;14.65;;
28459;SDS011;32528;45.712;9.192;2023-11-19T07:46:51;28.83;;;11.38;;
28459;SDS011;32528;45.712;9.192;2023-11-19T07:48:52;16.55;;;7.20;;
28459;SDS011;32528;45.712;9.192;2023-11-19T07:50:53;19.98;;;8.00;;
28459;SDS011;32528;45.712;9.192;2023-11-19T07:52:54;15.48;;;7.13;;
28459;SDS011;32528;45.712;9.192;2023-11-19T07:54:54;15.75;;;6.65;;
28459;SDS011;32528;45.712;9.192;2023-11-19T07:56:55;13.85;;;6.38;;
28459;SDS011;32528;45.712;9.192;2023-11-19T07:58:56;19.15;;;5.57;;
28459;SDS011;32528;45.712;9.192;2023-11-19T08:00:56;9.00;;;5.03;;
28459;SDS011;32528;45.712;9.192;2023-11-19T08:02:57;7.43;;;3.17;;
28459;SDS011;32528;45.712;9.192;2023-11-19T08:04:58;12.02;;;2.60;;
28459;SDS011;32528;45.712;9.192;2023-11-19T08:06:58;8.20;;;3.88;;
28459;SDS011;32528;45.712;9.192;2023-11-19T08:11:00;6.20;;;3.13;;
28459;SDS011;32528;45.712;9.192;2023-11-19T08:13:01;3.72;;;1.95;;
28459;SDS011;32528;45.712;9.192;2023-11-19T08:15:02;5.20;;;2.22;;
28459;SDS011;32528;45.712;9.192;2023-11-19T08:17:04;6.15;;;2.22;;
28459;SDS011;32528;45.712;9.192;2023-11-19T08:19:05;6.50;;;2.53;;
28459;SDS011;32528;45.712;9.192;2023-11-19T08:23:06;11.05;;;2.38;;
28459;SDS011;32528;45.712;9.192;2023-11-19T08:25:07;5.65;;;2.10;;
28459;SDS011;32528;45.712;9.192;2023-11-19T08:27:08;4.72;;;2.10;;
28459;SDS011;32528;45.712;9.192;2023-11-19T08:29:09;6.15;;;1.73;;
28459;SDS011;32528;45.712;9.192;2023-11-19T08:31:10;7.75;;;2.97;;
28459;SDS011;32528;45.712;9.192;2023-11-19T08:33:10;7.03;;;2.25;;
28459;SDS011;32528;45.712;9.192;2023-11-19T08:35:11;9.52;;;4.55;;
28459;SDS011;32528;45.712;9.192;2023-11-19T08:37:12;10.02;;;2.35;;
28459;SDS011;32528;45.712;9.192;2023-11-19T08:39:13;8.55;;;2.50;;
28459;SDS011;32528;45.712;9.192;2023-11-19T08:41:14;8.30;;;3.58;;
28459;SDS011;32528;45.712;9.192;2023-11-19T08:43:14;6.05;;;2.38;;
28459;SDS011;32528;45.712;9.192;2023-11-19T08:45:16;3.78;;;2.08;;
28459;SDS011;32528;45.712;9.192;2023-11-19T08:47:16;6.47;;;2.63;;
28459;SDS011;32528;45.712;9.192;2023-11-19T08:49:20;7.93;;;3.63;;
28459;SDS011;32528;45.712;9.192;2023-11-19T08:51:21;9.10;;;5.20;;
28459;SDS011;32528;45.712;9.192;2023-11-19T08:53:22;7.00;;;2.65;;
28459;SDS011;32528;45.712;9.192;2023-11-19T08:55:23;5.53;;;2.40;;
28459;SDS011;32528;45.712;9.192;2023-11-19T08:57:24;4.03;;;1.95;;
28459;SDS011;32528;45.712;9.192;2023-11-19T08:59:24;4.57;;;2.35;;
28459;SDS011;32528;45.712;9.192;2023-11-19T09:01:25;3.03;;;1.73;;
28459;SDS011;32528;45.712;9.192;2023-11-19T09:03:26;4.82;;;2.22;;
28459;SDS011;32528;45.712;9.192;2023-11-19T09:05:27;4.07;;;2.03;;
28459;SDS011;32528;45.712;9.192;2023-11-19T09:07:27;5.55;;;2.55;;
28459;SDS011;32528;45.712;9.192;2023-11-19T09:09:28;3.22;;;1.65;;
28459;SDS011;32528;45.712;9.192;2023-11-19T09:11:30;7.30;;;1.75;;
28459;SDS011;32528;45.712;9.192;2023-11-19T09:13:30;8.93;;;2.17;;
28459;SDS011;32528;45.712;9.192;2023-11-19T09:15:31;6.00;;;2.63;;
28459;SDS011;32528;45.712;9.192;2023-11-19T09:17:32;4.25;;;1.92;;
28459;SDS011;32528;45.712;9.192;2023-11-19T09:19:33;3.55;;;1.70;;
28459;SDS011;32528;45.712;9.192;2023-11-19T09:21:36;7.32;;;2.08;;
28459;SDS011;32528;45.712;9.192;2023-11-19T09:23:38;6.75;;;2.40;;
28459;SDS011;32528;45.712;9.192;2023-11-19T09:25:40;6.80;;;2.28;;
28459;SDS011;32528;45.712;9.192;2023-11-19T09:27:41;6.53;;;2.45;;
28459;SDS011;32528;45.712;9.192;2023-11-19T09:30:07;5.78;;;2.63;;
28459;SDS011;32528;45.712;9.192;2023-11-19T09:32:08;5.97;;;2.70;;
28459;SDS011;32528;45.712;9.192;2023-11-19T09:34:08;6.68;;;3.50;;
28459;SDS011;32528;45.712;9.192;2023-11-19T09:36:10;6.88;;;2.55;;
28459;SDS011;32528;45.712;9.192;2023-11-19T09:38:13;10.60;;;3.78;;
28459;SDS011;32528;45.712;9.192;2023-11-19T09:40:14;7.53;;;2.78;;
28459;SDS011;32528;45.712;9.192;2023-11-19T09:42:15;8.07;;;3.28;;
28459;SDS011;32528;45.712;9.192;2023-11-19T09:44:18;7.50;;;2.97;;
28459;SDS011;32528;45.712;9.192;2023-11-19T09:46:19;8.10;;;3.47;;
28459;SDS011;32528;45.712;9.192;2023-11-19T09:48:21;9.23;;;4.93;;
28459;SDS011;32528;45.712;9.192;2023-11-19T09:50:24;6.60;;;2.78;;
28459;SDS011;32528;45.712;9.192;2023-11-19T09:52:25;3.85;;;1.90;;
28459;SDS011;32528;45.712;9.192;2023-11-19T09:54:26;5.03;;;2.08;;
28459;SDS011;32528;45.712;9.192;2023-11-19T09:56:27;5.80;;;2.90;;
28459;SDS011;32528;45.712;9.192;2023-11-19T09:58:32;7.75;;;2.28;;
28459;SDS011;32528;45.712;9.192;2023-11-19T10:00:33;3.13;;;1.95;;
28459;SDS011;32528;45.712;9.192;2023-11-19T10:02:34;7.15;;;2.72;;
28459;SDS011;32528;45.712;9.192;2023-11-19T10:04:36;6.13;;;2.25;;
28459;SDS011;32528;45.712;9.192;2023-11-19T10:06:37;7.78;;;2.53;;
28459;SDS011;32528;45.712;9.192;2023-11-19T10:08:38;3.58;;;1.83;;
28459;SDS011;32528;45.712;9.192;2023-11-19T10:10:40;6.40;;;2.78;;
28459;SDS011;32528;45.712;9.192;2023-11-19T10:12:40;4.65;;;2.40;;
28459;SDS011;32528;45.712;9.192;2023-11-19T10:14:41;7.82;;;3.55;;
28459;SDS011;32528;45.712;9.192;2023-11-19T10:16:44;6.85;;;3.45;;
28459;SDS011;32528;45.712;9.192;2023-11-19T10:18:47;10.20;;;5.30;;
28459;SDS011;32528;45.712;9.192;2023-11-19T10:20:50;7.38;;;3.78;;
28459;SDS011;32528;45.712;9.192;2023-11-19T10:22:54;8.77;;;3.85;;
28459;SDS011;32528;45.712;9.192;2023-11-19T10:24:55;6.53;;;3.20;;
28459;SDS011;32528;45.712;9.192;2023-11-19T10:26:56;8.18;;;4.10;;
28459;SDS011;32528;45.712;9.192;2023-11-19T10:28:57;12.40;;;3.67;;
28459;SDS011;32528;45.712;9.192;2023-11-19T10:30:58;13.05;;;3.38;;
28459;SDS011;32528;45.712;9.192;2023-11-19T10:35:08;12.40;;;5.82;;
28459;SDS011;32528;45.712;9.192;2023-11-19T10:37:27;12.85;;;6.07;;
28459;SDS011;32528;45.712;9.192;2023-11-19T10:39:54;7.75;;;3.70;;
28459;SDS011;32528;45.712;9.192;2023-11-19T10:41:55;11.50;;;4.15;;
28459;SDS011;32528;45.712;9.192;2023-11-19T10:43:56;7.47;;;3.40;;
28459;SDS011;32528;45.712;9.192;2023-11-19T10:46:08;7.97;;;4.13;;
28459;SDS011;32528;45.712;9.192;2023-11-19T10:48:13;7.28;;;3.60;;
28459;SDS011;32528;45.712;9.192;2023-11-19T10:50:14;9.38;;;4.28;;
28459;SDS011;32528;45.712;9.192;2023-11-19T10:52:17;5.95;;;3.58;;
28459;SDS011;32528;45.712;9.192;2023-11-19T10:54:21;7.97;;;4.07;;
28459;SDS011;32528;45.712;9.192;2023-11-19T10:56:23;9.90;;;4.70;;
28459;SDS011;32528;45.712;9.192;2023-11-19T10:58:29;9.30;;;4.97;;
28459;SDS011;32528;45.712;9.192;2023-11-19T11:01:07;9.55;;;3.85;;
28459;SDS011;32528;45.712;9.192;2023-11-19T11:03:08;13.88;;;4.53;;
28459;SDS011;32528;45.712;9.192;2023-11-19T11:05:16;13.63;;;4.50;;
28459;SDS011;32528;45.712;9.192;2023-11-19T11:07:20;11.20;;;3.80;;
28459;SDS011;32528;45.712;9.192;2023-11-19T11:09:26;12.25;;;4.40;;
28459;SDS011;32528;45.712;9.192;2023-11-19T11:11:28;11.15;;;4.78;;
28459;SDS011;32528;45.712;9.192;2023-11-19T11:13:30;13.05;;;5.07;;
28459;SDS011;32528;45.712;9.192;2023-11-19T11:15:32;16.58;;;8.30;;
28459;SDS011;32528;45.712;9.192;2023-11-19T11:17:33;9.55;;;5.55;;
28459;SDS011;32528;45.712;9.192;2023-11-19T11:19:36;14.00;;;7.38;;
28459;SDS011;32528;45.712;9.192;2023-11-19T11:21:37;10.27;;;5.93;;
28459;SDS011;32528;45.712;9.192;2023-11-19T11:28:35;12.05;;;5.95;;
28459;SDS011;32528;45.712;9.192;2023-11-19T11:31:11;11.77;;;4.75;;
28459;SDS011;32528;45.712;9.192;2023-11-19T11:36:01;20.33;;;4.30;;
28459;SDS011;32528;45.712;9.192;2023-11-19T11:38:12;13.65;;;4.75;;
28459;SDS011;32528;45.712;9.192;2023-11-19T11:40:15;13.80;;;4.85;;
28459;SDS011;32528;45.712;9.192;2023-11-19T11:47:00;8.55;;;3.22;;
28459;SDS011;32528;45.712;9.192;2023-11-19T11:49:01;7.53;;;3.80;;
28459;SDS011;32528;45.712;9.192;2023-11-19T11:51:03;8.73;;;4.15;;
28459;SDS011;32528;45.712;9.192;2023-11-19T11:55:06;8.70;;;4.05;;
28459;SDS011;32528;45.712;9.192;2023-11-19T11:57:12;11.07;;;3.92;;
28459;SDS011;32528;45.712;9.192;2023-11-19T11:59:18;9.43;;;4.13;;
28459;SDS011;32528;45.712;9.192;2023-11-19T12:01:19;8.07;;;3.55;;
28459;SDS011;32528;45.712;9.192;2023-11-19T12:03:21;11.57;;;4.32;;
28459;SDS011;32528;45.712;9.192;2023-11-19T12:05:24;5.65;;;3.10;;
28459;SDS011;32528;45.712;9.192;2023-11-19T12:07:25;7.50;;;4.00;;
28459;SDS011;32528;45.712;9.192;2023-11-19T12:09:25;9.95;;;2.70;;
28459;SDS011;32528;45.712;9.192;2023-11-19T12:11:26;10.48;;;3.67;;
28459;SDS011;32528;45.712;9.192;2023-11-19T12:13:43;10.55;;;3.65;;
28459;SDS011;32528;45.712;9.192;2023-11-19T12:17:57;9.32;;;3.92;;
28459;SDS011;32528;45.712;9.192;2023-11-19T12:20:02;7.60;;;3.45;;
28459;SDS011;32528;45.712;9.192;2023-11-19T12:22:10;7.90;;;3.17;;
28459;SDS011;32528;45.712;9.192;2023-11-19T12:24:11;12.20;;;3.38;;
28459;SDS011;32528;45.712;9.192;2023-11-19T12:28:42;7.60;;;2.83;;
28459;SDS011;32528;45.712;9.192;2023-11-19T12:31:10;7.28;;;3.03;;
28459;SDS011;32528;45.712;9.192;2023-11-19T12:33:11;7.97;;;3.80;;
28459;SDS011;32528;45.712;9.192;2023-11-19T12:35:12;7.60;;;4.03;;
28459;SDS011;32528;45.712;9.192;2023-11-19T12:37:13;9.20;;;3.67;;
28459;SDS011;32528;45.712;9.192;2023-11-19T12:39:15;10.23;;;3.50;;
28459;SDS011;32528;45.712;9.192;2023-11-19T12:41:16;6.60;;;3.38;;
28459;SDS011;32528;45.712;9.192;2023-11-19T12:43:23;5.85;;;3.00;;
28459;SDS011;32528;45.712;9.192;2023-11-19T12:45:24;6.90;;;3.55;;
28459;SDS011;32528;45.712;9.192;2023-11-19T12:47:25;9.63;;;4.25;;